Time;durP1;ratioP1;P1;durP2;ratioP2;P2;SDS_P1;SDS_P2;PMS_P1;PMS_P2;Temp;Humidity;BMP_temperature;BMP_pressure;BME280_temperature;BME280_humidity;BME280_pressure;Samples;Min_cycle;Max_cycle;Signal;HPM_P1;HPM_P2
2023/01/19 00:00:02;;;;;;;;;;;;;;;-0.53;72.59;96823.09;4957854;28;19926;-75
2023/01/19 00:02:34;;;;;;;;;;;;;;;-0.38;72.75;96816.91;4945459;29;19927;-75
2023/01/19 00:05:03;;;;;;;;;;;;;;;-0.44;72.20;96818.00;4956711;29;19973;-75
2023/01/19 00:07:31;;;;;;;;;;;;;;;-0.56;72.22;96810.25;4956637;28;19934;-75
2023/01/19 00:09:59;;;;;;;;;;;;;;;-0.51;71.87;96814.81;4955161;28;19933;-75
2023/01/19 00:12:27;;;;;;;;;;;;;;;-0.60;72.11;96807.31;4957192;29;19931;-75
2023/01/19 00:14:55;;;;;;;;;;;;;;;-0.50;71.80;96811.88;4952913;29;19931;-75
2023/01/19 00:17:48;;;;;;;;;;;;;;;-0.49;71.65;96810.00;4953342;29;19927;-76
2023/01/19 00:20:17;;;;;;;;;;;;;;;-0.50;72.27;96811.06;4953274;28;19926;-75
2023/01/19 00:22:49;;;;;;;;;;;;;;;-0.63;72.66;96807.06;4956149;29;19933;-76
2023/01/19 00:25:17;;;;;;;;;;;;;;;-0.56;72.08;96807.59;4955008;29;19935;-76
2023/01/19 00:30:37;;;;;;;;;;;;;;;-0.72;72.67;96809.47;4957360;28;19938;-75
2023/01/19 00:33:06;;;;;;;;;;;;;;;-0.78;72.53;96815.06;4954925;29;19941;-75
2023/01/19 00:35:34;;;;;;;;;;;;;;;-0.72;72.96;96814.78;4958045;28;19934;-76
2023/01/19 00:38:02;;;;;;;;;;;;;;;-0.78;72.85;96810.53;4936393;29;21282;-76
2023/01/19 00:40:31;;;;;;;;;;;;;;;-0.80;72.73;96812.63;4957442;28;19926;-76
2023/01/19 00:42:59;;;;;;;;;;;;;;;-0.82;73.09;96820.13;4953305;29;19926;-76
2023/01/19 00:45:27;;;;;;;;;;;;;;;-0.78;73.27;96820.41;4936429;29;19982;-76
2023/01/19 00:47:56;;;;;;;;;;;;;;;-0.83;73.15;96818.50;4939880;29;19926;-76
2023/01/19 00:50:25;;;;;;;;;;;;;;;-0.77;73.27;96828.13;4947585;29;19981;-76
2023/01/19 00:53:19;;;;;;;;;;;;;;;-0.79;73.33;96827.59;4950084;29;19953;-76
2023/01/19 00:56:10;;;;;;;;;;;;;;;-0.74;72.87;96824.94;4954703;29;19938;-78
2023/01/19 00:58:38;;;;;;;;;;;;;;;-0.76;72.94;96826.25;4957804;28;19926;-78
2023/01/19 01:01:06;;;;;;;;;;;;;;;-0.87;73.22;96830.78;4962723;28;19910;-82
2023/01/19 01:03:35;;;;;;;;;;;;;;;-0.90;73.05;96820.66;4989117;28;19911;-82
2023/01/19 01:06:07;;;;;;;;;;;;;;;-0.89;73.04;96830.25;4981630;28;19950;-83
2023/01/19 01:08:37;;;;;;;;;;;;;;;-0.92;73.02;96830.75;4964439;29;19926;-83
2023/01/19 01:11:08;;;;;;;;;;;;;;;-0.87;72.91;96839.56;4988493;28;19970;-82
2023/01/19 01:13:36;;;;;;;;;;;;;;;-0.86;73.21;96841.16;4985754;28;19922;-83
2023/01/19 01:16:23;;;;;;;;;;;;;;;-0.95;73.37;96847.28;4966796;28;19933;-75
2023/01/19 01:18:52;;;;;;;;;;;;;;;-0.96;73.39;96859.84;4960908;28;20440;-76
2023/01/19 01:21:21;;;;;;;;;;;;;;;-0.91;73.40;96859.00;4936985;29;19927;-75
2023/01/19 01:23:49;;;;;;;;;;;;;;;-0.95;73.71;96868.63;4962267;28;20396;-75
2023/01/19 01:26:19;;;;;;;;;;;;;;;-0.98;73.73;96869.13;4953979;29;19933;-77
2023/01/19 01:28:47;;;;;;;;;;;;;;;-0.98;73.85;96874.47;4956537;29;19965;-77
2023/01/19 01:31:16;;;;;;;;;;;;;;;-0.90;72.46;96881.97;4961418;28;19982;-79
2023/01/19 01:33:44;;;;;;;;;;;;;;;-1.00;73.08;96881.94;4957511;28;19926;-78
2023/01/19 01:36:12;;;;;;;;;;;;;;;-0.95;72.92;96873.97;4958197;28;19942;-78
2023/01/19 01:38:41;;;;;;;;;;;;;;;-1.00;72.75;96881.94;4955892;28;19941;-78
2023/01/19 01:41:09;;;;;;;;;;;;;;;-1.13;73.50;96888.53;4974552;28;20001;-83
2023/01/19 01:43:42;;;;;;;;;;;;;;;-1.07;73.17;96888.28;5000759;28;19910;-82
2023/01/19 01:46:11;;;;;;;;;;;;;;;-1.13;73.38;96892.00;5000204;28;19941;-82
2023/01/19 01:48:39;;;;;;;;;;;;;;;-1.16;73.69;96889.88;4965148;28;19938;-83
2023/01/19 01:51:26;;;;;;;;;;;;;;;-1.14;73.55;96893.06;4957868;28;19930;-74
2023/01/19 01:54:22;;;;;;;;;;;;;;;-1.07;73.05;96893.63;4958933;28;20137;-74
2023/01/19 01:56:52;;;;;;;;;;;;;;;-1.06;72.90;96897.91;4953435;28;19910;-83
2023/01/19 02:05:08;;;;;;;;;;;;;;;-1.09;72.55;96882.44;4956344;28;19962;-82
2023/01/19 02:13:20;;;;;;;;;;;;;;;-1.29;72.54;96887.69;4954767;28;19911;-81
2023/01/19 02:15:54;;;;;;;;;;;;;;;-1.36;73.21;96889.78;5385574;23;19927;-75
2023/01/19 02:18:23;;;;;;;;;;;;;;;-1.41;73.27;96881.78;4921154;29;19927;-75
2023/01/19 02:20:53;;;;;;;;;;;;;;;-1.32;72.66;96866.91;4934966;29;19931;-75
2023/01/19 02:26:21;;;;;;;;;;;;;;;-1.42;73.18;96880.19;4899937;29;20330;-75
2023/01/19 02:28:50;;;;;;;;;;;;;;;-1.47;73.24;96886.28;4905204;29;20009;-75
2023/01/19 02:31:18;;;;;;;;;;;;;;;-1.44;73.27;96882.28;4914317;29;19935;-77
2023/01/19 02:33:47;;;;;;;;;;;;;;;-1.45;73.18;96883.34;4930919;29;19934;-77
2023/01/19 02:36:15;;;;;;;;;;;;;;;-1.43;73.13;96886.56;4901664;29;20283;-74
2023/01/19 02:38:45;;;;;;;;;;;;;;;-1.47;72.88;96883.63;4918029;29;19934;-74
2023/01/19 02:41:14;;;;;;;;;;;;;;;-1.54;72.77;96888.38;4916992;29;19927;-77
2023/01/19 02:43:43;;;;;;;;;;;;;;;-1.57;73.13;96883.56;4930110;29;20387;-77
2023/01/19 02:49:03;;;;;;;;;;;;;;;-1.51;73.63;96898.50;4921188;29;19927;-77
2023/01/19 02:51:56;;;;;;;;;;;;;;;-1.48;73.59;96891.88;4934496;29;19954;-77
2023/01/19 02:54:38;;;;;;;;;;;;;;;-1.39;72.73;96895.63;4920440;29;20406;-77
2023/01/19 02:57:11;;;;;;;;;;;;;;;-1.44;73.02;96901.75;4927613;29;19931;-77
2023/01/19 02:59:43;;;;;;;;;;;;;;;-1.44;72.94;96899.09;4920603;29;19965;-77
2023/01/19 03:02:16;;;;;;;;;;;;;;;-1.38;72.27;96907.91;4932149;29;19931;-77
2023/01/19 03:05:16;;;;;;;;;;;;;;;-1.48;72.69;96907.84;4896192;29;19934;-77
2023/01/19 03:08:12;;;;;;;;;;;;;;;-1.50;72.11;96909.97;4926213;29;19938;-78
2023/01/19 03:10:43;;;;;;;;;;;;;;;-1.52;72.25;96914.75;4916138;29;19935;-75
2023/01/19 03:13:11;;;;;;;;;;;;;;;-1.59;72.79;96909.66;4921012;29;19930;-75
2023/01/19 03:15:40;;;;;;;;;;;;;;;-1.51;73.05;96913.69;4915127;29;20308;-76
2023/01/19 03:18:08;;;;;;;;;;;;;;;-1.42;73.13;96914.81;4921016;29;19950;-75
2023/01/19 03:20:36;;;;;;;;;;;;;;;-1.38;72.24;96916.69;4922412;29;19933;-77
2023/01/19 03:23:05;;;;;;;;;;;;;;;-1.37;72.41;96917.50;4901909;29;19955;-76
2023/01/19 03:25:34;;;;;;;;;;;;;;;-1.41;72.43;96921.75;4921635;29;19931;-77
2023/01/19 03:28:04;;;;;;;;;;;;;;;-1.42;72.76;96920.13;4920200;29;19935;-77
2023/01/19 03:30:32;;;;;;;;;;;;;;;-1.44;72.66;96916.91;4933626;29;19927;-74
2023/01/19 03:33:01;;;;;;;;;;;;;;;-1.43;72.98;96929.19;4931758;29;19927;-74
2023/01/19 03:35:30;;;;;;;;;;;;;;;-1.45;73.14;96925.97;4916916;29;19933;-77
2023/01/19 03:37:58;;;;;;;;;;;;;;;-1.43;72.71;96931.88;4925922;29;19928;-77
2023/01/19 03:40:51;;;;;;;;;;;;;;;-1.48;73.05;96929.16;4916683;29;19935;-77
2023/01/19 03:43:25;;;;;;;;;;;;;;;-1.61;73.20;96925.88;4929702;29;19931;-77
2023/01/19 03:45:54;;;;;;;;;;;;;;;-1.64;73.67;96934.41;4929298;29;19935;-75
2023/01/19 03:48:21;;;;;;;;;;;;;;;-1.61;73.82;96936.53;4926528;29;19934;-76
2023/01/19 03:50:50;;;;;;;;;;;;;;;-1.67;73.61;96942.88;4921948;29;19934;-77
2023/01/19 03:53:18;;;;;;;;;;;;;;;-1.54;73.10;96946.19;4913903;29;19997;-77
2023/01/19 03:55:47;;;;;;;;;;;;;;;-1.66;73.92;96949.81;4922447;29;19927;-77
2023/01/19 03:58:14;;;;;;;;;;;;;;;-1.54;73.70;96951.50;4927912;29;20394;-77
2023/01/19 04:00:44;;;;;;;;;;;;;;;-1.53;73.37;96947.78;4923761;29;19928;-77
2023/01/19 04:03:12;;;;;;;;;;;;;;;-1.55;73.22;96945.34;4932391;29;20365;-78
2023/01/19 04:05:41;;;;;;;;;;;;;;;-1.52;72.88;96949.38;4919309;29;19934;-78
2023/01/19 04:08:10;;;;;;;;;;;;;;;-1.56;73.15;96953.59;4926885;29;20438;-77
2023/01/19 04:10:38;;;;;;;;;;;;;;;-1.65;73.30;96951.44;4921816;29;19934;-77
2023/01/19 04:13:06;;;;;;;;;;;;;;;-1.63;73.36;96959.97;4904786;29;19934;-77
2023/01/19 04:15:35;;;;;;;;;;;;;;;-1.67;73.58;96956.19;4902912;29;19935;-77
2023/01/19 04:18:05;;;;;;;;;;;;;;;-1.72;73.67;96958.81;4918279;29;19953;-77
2023/01/19 04:20:36;;;;;;;;;;;;;;;-1.74;73.75;96954.84;4920172;29;19935;-77
2023/01/19 04:23:04;;;;;;;;;;;;;;;-1.82;73.88;96949.97;4929390;29;19931;-77
2023/01/19 04:25:32;;;;;;;;;;;;;;;-1.86;74.28;96952.34;4928171;28;19911;-81
2023/01/19 04:28:00;;;;;;;;;;;;;;;-1.81;74.24;96943.56;4954986;28;19911;-82
2023/01/19 04:39:18;;;;;;;;;;;;;;;-1.81;73.80;96935.59;4984201;23;19934;-82
2023/01/19 04:41:51;;;;;;;;;;;;;;;-1.80;74.10;96946.00;4943884;29;19926;-76
2023/01/19 04:44:19;;;;;;;;;;;;;;;-1.83;74.16;96943.03;4939616;29;19934;-76
2023/01/19 04:46:47;;;;;;;;;;;;;;;-1.73;74.30;96943.91;4941226;29;19931;-76
2023/01/19 04:49:15;;;;;;;;;;;;;;;-1.72;73.62;96940.19;4936275;29;19927;-74
2023/01/19 04:51:44;;;;;;;;;;;;;;;-1.72;73.71;96937.53;4928055;29;20021;-76
2023/01/19 04:54:12;;;;;;;;;;;;;;;-1.70;73.98;96937.28;4942020;29;19966;-75
2023/01/19 04:56:42;;;;;;;;;;;;;;;-1.64;73.35;96945.06;4939726;29;19982;-74
2023/01/19 04:59:11;;;;;;;;;;;;;;;-1.67;73.51;96947.41;4939415;29;19927;-73
2023/01/19 05:01:39;;;;;;;;;;;;;;;-1.61;73.36;96949.84;4942967;29;20272;-75
2023/01/19 05:04:08;;;;;;;;;;;;;;;-1.71;73.22;96944.44;4939366;29;19933;-76
2023/01/19 05:06:36;;;;;;;;;;;;;;;-1.65;73.27;96951.44;4936617;29;19934;-76
2023/01/19 05:09:06;;;;;;;;;;;;;;;-1.63;73.47;96951.19;4941838;29;20301;-76
2023/01/19 05:11:34;;;;;;;;;;;;;;;-1.66;73.39;96955.13;4915463;29;20007;-79
2023/01/19 05:14:03;;;;;;;;;;;;;;;-1.66;73.42;96957.81;4924947;29;19935;-79
2023/01/19 05:16:31;;;;;;;;;;;;;;;-1.74;73.84;96966.28;4933578;29;19930;-78
2023/01/19 05:18:59;;;;;;;;;;;;;;;-1.60;73.49;96962.13;4924267;29;20417;-78
2023/01/19 05:21:28;;;;;;;;;;;;;;;-1.52;73.41;96960.03;4923445;29;19933;-76
2023/01/19 05:23:56;;;;;;;;;;;;;;;-1.46;72.50;96956.34;4943878;28;19954;-77
2023/01/19 05:26:26;;;;;;;;;;;;;;;-1.60;72.89;96962.13;4947197;29;19935;-79
2023/01/19 05:28:55;;;;;;;;;;;;;;;-1.65;73.59;96964.75;4928412;29;19958;-78
2023/01/19 05:31:24;;;;;;;;;;;;;;;-1.65;73.19;96970.09;4916371;29;19935;-79
2023/01/19 05:33:52;;;;;;;;;;;;;;;-1.64;73.27;96976.22;4933702;29;19927;-79
2023/01/19 05:36:20;;;;;;;;;;;;;;;-1.53;73.31;96969.09;4935243;28;19934;-78
2023/01/19 05:38:48;;;;;;;;;;;;;;;-1.60;72.76;96970.13;4920621;29;19930;-79
2023/01/19 05:41:17;;;;;;;;;;;;;;;-1.62;73.16;96969.56;4936509;29;19930;-78
2023/01/19 05:43:45;;;;;;;;;;;;;;;-1.62;73.54;96971.41;4938298;28;19930;-78
2023/01/19 05:46:13;;;;;;;;;;;;;;;-1.59;72.96;96969.06;4937536;29;19944;-78
2023/01/19 05:49:09;;;;;;;;;;;;;;;-1.53;72.84;96971.75;4940345;28;19927;-78
2023/01/19 05:54:28;;;;;;;;;;;;;;;-1.54;72.78;96973.63;4927520;29;19934;-79
2023/01/19 05:56:57;;;;;;;;;;;;;;;-1.50;72.56;96977.34;4935424;29;19949;-79
2023/01/19 05:59:25;;;;;;;;;;;;;;;-1.51;72.82;96980.28;4929883;29;19946;-79
2023/01/19 06:01:53;;;;;;;;;;;;;;;-1.46;72.54;96977.66;4940144;29;19934;-79
2023/01/19 06:04:23;;;;;;;;;;;;;;;-1.58;72.51;96977.84;4938932;29;19927;-78
2023/01/19 06:06:51;;;;;;;;;;;;;;;-1.63;72.93;96970.63;4937818;29;19926;-79
2023/01/19 06:09:22;;;;;;;;;;;;;;;-1.61;73.03;96973.81;4945234;29;19933;-78
2023/01/19 06:11:52;;;;;;;;;;;;;;;-1.60;73.07;96975.44;4951452;28;19911;-81
2023/01/19 06:26:06;;;;;;;;;;;;;;;-1.60;73.16;96980.78;5662711;23;20053;-73
2023/01/19 06:28:59;;;;;;;;;;;;;;;-1.64;72.67;96990.31;4944696;29;19934;-73
2023/01/19 06:31:30;;;;;;;;;;;;;;;-1.74;72.94;96989.44;4953844;28;19926;-79
2023/01/19 06:34:00;;;;;;;;;;;;;;;-1.77;73.43;96996.06;4964867;28;19934;-81
2023/01/19 06:36:54;;;;;;;;;;;;;;;-1.75;73.29;97003.81;5027620;23;19927;-78
2023/01/19 06:39:22;;;;;;;;;;;;;;;-1.71;73.10;97000.38;4946525;28;19914;-80
2023/01/19 06:41:54;;;;;;;;;;;;;;;-1.62;73.69;96998.84;4958031;28;19970;-84
2023/01/19 06:50:21;;;;;;;;;;;;;;;-1.42;72.84;97002.72;5518616;23;19926;-78
2023/01/19 07:10:24;;;;;;;;;;;;;;;-1.54;72.51;97010.09;6071823;23;20720;-78
2023/01/19 07:12:52;;;;;;;;;;;;;;;-1.45;72.26;97009.34;4923884;29;19943;-83
2023/01/19 07:15:40;;;;;;;;;;;;;;;-1.50;72.43;97004.00;5470643;23;19933;-79
2023/01/19 07:18:08;;;;;;;;;;;;;;;-1.51;72.61;97006.91;4944290;29;19934;-79
2023/01/19 07:20:36;;;;;;;;;;;;;;;-1.49;72.16;97007.44;4947027;29;19927;-79
2023/01/19 07:23:04;;;;;;;;;;;;;;;-1.48;72.43;97014.41;4938316;29;19927;-78
2023/01/19 07:25:34;;;;;;;;;;;;;;;-1.38;72.05;97025.13;4942026;29;20465;-79
2023/01/19 07:28:02;;;;;;;;;;;;;;;-1.31;72.00;97020.38;4938683;29;19927;-78
2023/01/19 07:30:30;;;;;;;;;;;;;;;-1.39;72.05;97012.84;4927487;29;19934;-74
2023/01/19 07:32:58;;;;;;;;;;;;;;;-1.47;72.04;97018.66;4935249;29;20335;-74
2023/01/19 07:35:53;;;;;;;;;;;;;;;-1.44;72.21;97018.16;4934117;29;19941;-74
2023/01/19 07:38:21;;;;;;;;;;;;;;;-1.45;72.17;97027.19;4935385;29;19941;-73
2023/01/19 07:40:51;;;;;;;;;;;;;;;-1.42;71.77;97024.84;4933861;29;19927;-74
2023/01/19 07:43:19;;;;;;;;;;;;;;;-1.39;71.84;97031.50;4933835;29;19958;-75
2023/01/19 07:57:34;;;;;;;;;;;;;;;-1.34;71.09;97043.00;4966340;23;19974;-77
2023/01/19 08:00:03;;;;;;;;;;;;;;;-1.36;71.75;97039.00;4930943;29;19938;-77
2023/01/19 08:02:40;;;;;;;;;;;;;;;-1.33;71.27;97054.47;4939116;29;19982;-77
2023/01/19 08:05:09;;;;;;;;;;;;;;;-1.40;71.82;97056.53;4918087;29;19970;-78
2023/01/19 08:07:37;;;;;;;;;;;;;;;-1.43;71.81;97051.75;4926781;29;19978;-78
2023/01/19 08:10:06;;;;;;;;;;;;;;;-1.36;71.44;97055.78;4937315;29;19927;-79
2023/01/19 08:12:35;;;;;;;;;;;;;;;-1.39;71.82;97061.59;4921790;29;20402;-78
2023/01/19 08:15:04;;;;;;;;;;;;;;;-1.28;71.59;97065.16;4937649;29;20420;-78
2023/01/19 08:17:32;;;;;;;;;;;;;;;-1.40;71.79;97064.53;4918267;29;19962;-78
2023/01/19 08:20:00;;;;;;;;;;;;;;;-1.29;71.65;97065.41;4938405;29;19926;-78
2023/01/19 08:22:28;;;;;;;;;;;;;;;-1.30;71.41;97069.16;4937325;29;19933;-77
2023/01/19 08:24:55;;;;;;;;;;;;;;;-1.37;71.60;97077.34;4921179;29;19938;-78
2023/01/19 08:56:37;;;;;;;;;;;;;;;-0.94;70.69;97092.31;5421913;23;19966;-73
2023/01/19 08:59:06;;;;;;;;;;;;;;;-0.93;71.12;97098.44;4956682;28;19958;-73
2023/01/19 09:01:40;;;;;;;;;;;;;;;-0.91;71.20;97102.44;4952421;28;19926;-73
2023/01/19 09:04:08;;;;;;;;;;;;;;;-0.85;71.15;97108.66;4938148;29;19926;-74
2023/01/19 09:06:36;;;;;;;;;;;;;;;-0.88;71.26;97115.28;4970372;28;19927;-76
2023/01/19 09:09:06;;;;;;;;;;;;;;;-0.68;71.00;97113.81;4938052;29;19973;-76
2023/01/19 09:11:35;;;;;;;;;;;;;;;-0.52;70.73;97114.69;4948123;28;20301;-76
2023/01/19 09:14:05;;;;;;;;;;;;;;;-0.47;69.63;97112.03;4951951;29;19926;-76
2023/01/19 09:16:33;;;;;;;;;;;;;;;-0.52;69.31;97117.34;4935778;29;20567;-76
2023/01/19 09:19:01;;;;;;;;;;;;;;;-0.60;69.91;97119.44;4954580;28;19927;-76
2023/01/19 09:21:29;;;;;;;;;;;;;;;-0.48;69.45;97129.09;4953091;28;20283;-74
2023/01/19 09:23:58;;;;;;;;;;;;;;;-0.47;69.24;97122.72;4955974;28;20355;-73
2023/01/19 09:26:26;;;;;;;;;;;;;;;-0.48;68.91;97115.75;4945949;29;19927;-73
2023/01/19 09:28:54;;;;;;;;;;;;;;;-0.47;68.78;97120.06;4957132;28;19938;-73
2023/01/19 09:31:24;;;;;;;;;;;;;;;-0.46;68.58;97118.97;4940182;29;19926;-74
2023/01/19 09:33:52;;;;;;;;;;;;;;;-0.48;68.74;97113.91;4942501;29;19930;-73
2023/01/19 09:36:20;;;;;;;;;;;;;;;-0.47;69.01;97125.38;4959926;28;19927;-74
2023/01/19 09:38:47;;;;;;;;;;;;;;;-0.41;69.27;97124.34;4946237;28;19941;-73
2023/01/19 09:41:17;;;;;;;;;;;;;;;-0.25;68.59;97126.03;4956900;28;19933;-73
2023/01/19 09:43:46;;;;;;;;;;;;;;;-0.13;68.00;97131.13;4957555;29;19981;-74
2023/01/19 09:49:33;;;;;;;;;;;;;;;-0.16;68.65;97136.97;4941396;28;19972;-73
2023/01/19 09:52:01;;;;;;;;;;;;;;;-0.05;68.85;97134.09;4953112;28;19933;-78
2023/01/19 09:54:30;;;;;;;;;;;;;;;0.05;68.18;97117.28;4962501;28;20139;-78
2023/01/19 09:56:58;;;;;;;;;;;;;;;0.14;68.03;97122.94;4954192;28;19926;-76
2023/01/19 09:59:28;;;;;;;;;;;;;;;0.13;67.22;97122.13;4954024;28;19935;-76
2023/01/19 10:02:05;;;;;;;;;;;;;;;0.10;67.95;97119.19;4954684;28;19933;-75
2023/01/19 10:07:32;;;;;;;;;;;;;;;0.22;67.49;97122.44;4948543;29;20382;-75
2023/01/19 10:10:13;;;;;;;;;;;;;;;0.22;67.53;97117.09;4954848;28;19926;-75
2023/01/19 10:12:43;;;;;;;;;;;;;;;0.23;67.44;97113.34;4957396;28;19927;-75
2023/01/19 10:15:14;;;;;;;;;;;;;;;0.41;67.10;97110.16;4935002;29;19930;-75
2023/01/19 10:17:45;;;;;;;;;;;;;;;0.56;66.25;97109.38;4953666;28;20359;-75
2023/01/19 10:20:15;;;;;;;;;;;;;;;0.64;65.80;97113.38;4944263;28;20334;-75
2023/01/19 10:22:43;;;;;;;;;;;;;;;0.64;65.97;97114.22;4949745;28;20017;-74
2023/01/19 10:25:14;;;;;;;;;;;;;;;0.56;66.60;97117.41;4956055;28;19934;-75
2023/01/19 10:30:34;;;;;;;;;;;;;;;0.66;65.32;97120.06;4953309;28;19941;-76
2023/01/19 10:33:02;;;;;;;;;;;;;;;0.60;65.57;97120.34;4955758;28;19926;-76
2023/01/19 10:35:32;;;;;;;;;;;;;;;0.69;66.65;97126.75;4955059;28;19926;-76
2023/01/19 10:38:01;;;;;;;;;;;;;;;0.79;65.98;97116.06;4955006;28;20408;-76
2023/01/19 10:40:31;;;;;;;;;;;;;;;0.78;65.98;97119.81;4951944;29;19974;-76
2023/01/19 10:42:58;;;;;;;;;;;;;;;0.81;65.22;97115.81;4936350;29;19926;-76
2023/01/19 10:45:29;;;;;;;;;;;;;;;0.79;66.06;97116.84;4952670;28;19954;-76
2023/01/19 10:48:00;;;;;;;;;;;;;;;0.81;66.23;97113.13;4952694;28;19934;-76
2023/01/19 10:50:30;;;;;;;;;;;;;;;0.81;65.85;97115.81;4934875;29;19927;-76
2023/01/19 10:52:59;;;;;;;;;;;;;;;0.84;64.98;97113.38;4952113;28;20396;-76
2023/01/19 10:55:53;;;;;;;;;;;;;;;0.90;65.19;97116.84;4965070;28;19926;-76
2023/01/19 10:58:28;;;;;;;;;;;;;;;0.82;65.54;97114.75;4951210;28;20381;-76
2023/01/19 11:00:56;;;;;;;;;;;;;;;0.94;64.82;97110.72;4950120;28;19926;-76
2023/01/19 11:03:24;;;;;;;;;;;;;;;0.81;65.26;97107.78;4952004;28;19931;-76
2023/01/19 11:05:53;;;;;;;;;;;;;;;0.83;65.71;97111.78;4947518;29;19927;-76
2023/01/19 11:08:23;;;;;;;;;;;;;;;0.93;65.08;97111.78;4940705;28;19970;-76
2023/01/19 11:10:55;;;;;;;;;;;;;;;0.89;65.68;97121.41;4943580;29;20301;-74
2023/01/19 11:13:24;;;;;;;;;;;;;;;0.98;65.10;97113.66;4950040;28;19927;-74
2023/01/19 11:15:53;;;;;;;;;;;;;;;0.96;65.87;97121.97;4955427;28;19927;-73
2023/01/19 11:18:22;;;;;;;;;;;;;;;0.96;65.74;97115.78;4951048;28;19930;-70
2023/01/19 11:20:51;;;;;;;;;;;;;;;1.02;65.72;97120.88;4949210;29;20010;-75
2023/01/19 11:23:44;;;;;;;;;;;;;;;1.11;65.47;97113.09;4953501;28;19934;-75
2023/01/19 11:26:37;;;;;;;;;;;;;;;1.25;64.55;97108.78;4956734;29;19927;-78
2023/01/19 11:29:12;;;;;;;;;;;;;;;1.39;64.11;97103.69;4948678;29;19931;-80
2023/01/19 11:31:41;;;;;;;;;;;;;;;1.55;63.31;97101.78;4961862;28;19933;-75
2023/01/19 11:34:22;;;;;;;;;;;;;;;1.66;63.50;97102.53;4954497;28;19926;-75
2023/01/19 11:36:55;;;;;;;;;;;;;;;1.66;62.28;97097.19;4957641;28;19981;-76
2023/01/19 11:39:23;;;;;;;;;;;;;;;1.60;62.49;97093.72;4957553;28;19927;-75
2023/01/19 11:42:16;;;;;;;;;;;;;;;1.53;62.78;97091.31;4957545;29;19978;-74
2023/01/19 11:44:47;;;;;;;;;;;;;;;1.56;62.15;97093.47;4958387;28;19942;-75
2023/01/19 11:47:18;;;;;;;;;;;;;;;1.62;62.85;97091.56;4951075;29;19927;-75
2023/01/19 11:49:49;;;;;;;;;;;;;;;1.66;62.72;97081.13;4939611;29;19926;-74
2023/01/19 11:52:19;;;;;;;;;;;;;;;1.65;63.21;97076.81;4970452;29;19998;-82
2023/01/19 11:54:49;;;;;;;;;;;;;;;1.60;62.83;97083.03;4950084;29;20018;-79
2023/01/19 11:57:43;;;;;;;;;;;;;;;1.71;62.56;97081.09;4967407;28;19990;-79
2023/01/19 12:00:17;;;;;;;;;;;;;;;1.64;62.40;97077.91;4950492;29;19984;-78
2023/01/19 12:02:46;;;;;;;;;;;;;;;1.65;62.15;97079.50;4953833;29;19945;-80
2023/01/19 12:05:15;;;;;;;;;;;;;;;1.68;63.69;97081.63;4966808;29;19926;-77
2023/01/19 12:07:43;;;;;;;;;;;;;;;1.81;62.10;97073.81;4957544;28;19945;-78
2023/01/19 12:10:15;;;;;;;;;;;;;;;1.74;62.81;97072.50;4974165;29;19921;-81
2023/01/19 12:12:44;;;;;;;;;;;;;;;1.70;62.92;97072.25;4982903;28;19911;-82
2023/01/19 12:15:20;;;;;;;;;;;;;;;1.83;63.04;97077.03;4978169;28;19910;-81
2023/01/19 12:17:51;;;;;;;;;;;;;;;2.01;62.53;97080.13;4954535;28;20376;-77
2023/01/19 12:20:21;;;;;;;;;;;;;;;2.05;60.32;97083.88;4941189;29;20013;-78
2023/01/19 12:22:59;;;;;;;;;;;;;;;1.88;61.49;97078.06;4955839;28;19927;-77
2023/01/19 12:25:29;;;;;;;;;;;;;;;2.07;60.49;97087.88;4957749;28;19997;-79
2023/01/19 12:27:58;;;;;;;;;;;;;;;1.97;61.03;97087.13;4944066;29;19930;-80
2023/01/19 12:30:29;;;;;;;;;;;;;;;1.95;61.85;97084.72;4937108;29;20338;-80
2023/01/19 12:33:13;;;;;;;;;;;;;;;1.98;61.19;97084.19;4940483;29;20009;-79
2023/01/19 12:35:53;;;;;;;;;;;;;;;1.95;60.54;97086.59;4955331;29;19926;-79
2023/01/19 12:38:23;;;;;;;;;;;;;;;1.92;60.78;97082.63;4930413;29;19940;-79
2023/01/19 12:40:51;;;;;;;;;;;;;;;1.81;61.39;97081.88;4948382;29;19926;-75
2023/01/19 12:43:19;;;;;;;;;;;;;;;1.80;61.21;97087.47;4956784;29;19927;-75
2023/01/19 12:45:49;;;;;;;;;;;;;;;1.69;61.08;97084.03;4953776;28;19926;-75
2023/01/19 12:48:23;;;;;;;;;;;;;;;1.61;61.86;97084.63;4950390;28;19993;-75
2023/01/19 12:50:52;;;;;;;;;;;;;;;1.62;61.63;97091.56;4951768;29;20363;-72
2023/01/19 12:53:45;;;;;;;;;;;;;;;1.56;61.36;97088.13;4954886;29;19933;-72
2023/01/19 12:56:14;;;;;;;;;;;;;;;1.52;62.16;97089.72;4946304;29;19981;-71
2023/01/19 12:58:45;;;;;;;;;;;;;;;1.58;61.34;97091.31;4956739;28;20374;-71
2023/01/19 13:01:17;;;;;;;;;;;;;;;1.68;60.56;97065.56;4954534;29;19934;-71
2023/01/19 13:03:46;;;;;;;;;;;;;;;1.74;61.22;97070.63;4955414;29;19931;-77
2023/01/19 13:06:17;;;;;;;;;;;;;;;1.94;61.32;97069.72;4956585;28;19934;-75
2023/01/19 13:09:00;;;;;;;;;;;;;;;2.09;60.16;97075.00;4954822;28;19926;-76
2023/01/19 13:11:28;;;;;;;;;;;;;;;2.20;59.71;97064.22;4947397;29;20357;-77
2023/01/19 13:17:28;;;;;;;;;;;;;;;2.18;59.71;97071.72;4954996;28;19934;-71
2023/01/19 13:20:11;;;;;;;;;;;;;;;2.10;59.75;97071.25;4956353;28;19930;-71
2023/01/19 13:22:52;;;;;;;;;;;;;;;2.00;59.98;97076.66;4953894;29;20350;-71
2023/01/19 13:25:34;;;;;;;;;;;;;;;1.90;60.45;97071.34;4952284;28;19933;-76
2023/01/19 13:28:03;;;;;;;;;;;;;;;1.96;60.64;97075.59;4934642;29;20033;-76
2023/01/19 13:30:33;;;;;;;;;;;;;;;1.80;61.08;97074.88;4953716;28;19926;-76
2023/01/19 13:33:03;;;;;;;;;;;;;;;1.81;61.42;97076.50;4955947;28;19927;-75
2023/01/19 13:35:31;;;;;;;;;;;;;;;1.90;61.18;97076.72;4951085;28;19926;-76
2023/01/19 13:38:01;;;;;;;;;;;;;;;1.99;59.38;97077.75;4954061;28;19977;-76
2023/01/19 13:40:32;;;;;;;;;;;;;;;1.88;60.64;97081.56;4953487;28;19926;-76
2023/01/19 13:43:00;;;;;;;;;;;;;;;1.85;61.18;97084.78;4942179;29;19927;-75
2023/01/19 13:45:32;;;;;;;;;;;;;;;1.88;61.26;97081.56;4954231;29;19934;-71
2023/01/19 13:48:05;;;;;;;;;;;;;;;1.87;60.48;97082.63;4951958;29;19927;-71
2023/01/19 13:50:34;;;;;;;;;;;;;;;1.82;61.32;97079.97;4956209;28;19927;-76
2023/01/19 13:53:04;;;;;;;;;;;;;;;1.74;61.80;97075.19;4935757;29;19933;-75
2023/01/19 13:56:05;;;;;;;;;;;;;;;1.76;60.84;97065.03;4954223;29;19933;-78
2023/01/19 13:58:35;;;;;;;;;;;;;;;1.86;61.75;97078.34;4952186;28;19982;-77
2023/01/19 14:01:03;;;;;;;;;;;;;;;1.94;60.38;97076.97;4953544;28;19934;-75
2023/01/19 14:03:32;;;;;;;;;;;;;;;1.91;61.37;97072.94;4953986;28;19926;-76
2023/01/19 14:06:02;;;;;;;;;;;;;;;1.91;61.47;97075.63;4954198;28;20035;-76
2023/01/19 14:08:31;;;;;;;;;;;;;;;1.99;61.06;97080.44;4945926;29;19927;-76
2023/01/19 14:11:00;;;;;;;;;;;;;;;2.04;59.95;97083.06;4940478;29;19926;-78
2023/01/19 14:13:53;;;;;;;;;;;;;;;1.92;61.29;97084.47;4953758;28;19926;-77
2023/01/19 14:16:45;;;;;;;;;;;;;;;1.96;60.87;97091.69;4931521;29;19926;-78
2023/01/19 14:19:38;;;;;;;;;;;;;;;1.88;60.96;97096.81;4947120;28;19931;-77
2023/01/19 14:22:08;;;;;;;;;;;;;;;1.83;61.31;97086.94;4933102;29;19938;-76
2023/01/19 14:24:37;;;;;;;;;;;;;;;1.77;61.54;97088.03;4952565;28;19934;-76
2023/01/19 14:27:07;;;;;;;;;;;;;;;1.80;61.50;97088.28;4949832;28;19926;-75
2023/01/19 14:29:36;;;;;;;;;;;;;;;1.76;61.98;97081.88;4949606;28;19969;-77
2023/01/19 14:32:07;;;;;;;;;;;;;;;1.73;61.84;97081.63;4928359;29;19926;-77
2023/01/19 14:34:37;;;;;;;;;;;;;;;1.72;61.60;97085.38;4946960;29;19927;-78
2023/01/19 14:37:12;;;;;;;;;;;;;;;1.74;62.02;97086.69;4943982;29;19927;-80
2023/01/19 14:39:43;;;;;;;;;;;;;;;1.73;62.18;97090.44;4947165;29;20305;-78
2023/01/19 14:42:14;;;;;;;;;;;;;;;1.72;62.33;97085.38;4928559;29;19985;-81
2023/01/19 14:44:46;;;;;;;;;;;;;;;1.73;62.93;97087.78;4956146;28;19930;-79
2023/01/19 14:47:22;;;;;;;;;;;;;;;1.66;62.51;97089.94;4953987;29;19934;-77
2023/01/19 14:49:50;;;;;;;;;;;;;;;1.81;61.83;97086.38;4958974;28;19931;-78
2023/01/19 14:52:20;;;;;;;;;;;;;;;1.76;62.74;97092.59;4949563;28;19930;-75
2023/01/19 14:54:50;;;;;;;;;;;;;;;1.78;62.21;97100.34;4954200;28;19965;-76
2023/01/19 14:57:43;;;;;;;;;;;;;;;1.64;62.91;97100.13;4947811;28;19942;-75
2023/01/19 15:00:14;;;;;;;;;;;;;;;1.62;62.95;97098.81;4946175;28;19926;-75
2023/01/19 15:02:44;;;;;;;;;;;;;;;1.63;62.87;97101.19;4949791;28;19947;-76
2023/01/19 15:05:12;;;;;;;;;;;;;;;1.58;62.72;97103.88;4933438;28;19982;-75
2023/01/19 15:07:44;;;;;;;;;;;;;;;1.64;62.80;97104.69;4934346;29;19945;-75
2023/01/19 15:10:15;;;;;;;;;;;;;;;1.66;63.32;97106.03;4933259;28;19931;-75
2023/01/19 15:12:44;;;;;;;;;;;;;;;1.64;62.78;97105.47;4950726;28;19926;-75